Time;durP1;ratioP1;P1;durP2;ratioP2;P2;SDS_P1;SDS_P2;PMS_P1;PMS_P2;Temp;Humidity;BMP_temperature;BMP_pressure;BME280_temperature;BME280_humidity;BME280_pressure;Samples;Min_cycle;Max_cycle;Signal;HPM_P1;HPM_P2
2023/04/22 00:02:05;;;;;;;11.02;9.57;;;;;;;5.56;100.00;100832.69;5052062;28;20060;-82
2023/04/22 00:04:30;;;;;;;12.85;9.80;;;;;;;5.52;100.00;100833.72;5052075;28;20147;-85
2023/04/22 00:06:55;;;;;;;13.38;10.57;;;;;;;5.54;100.00;100834.47;5052142;28;20028;-85
2023/04/22 00:09:21;;;;;;;13.75;11.38;;;;;;;5.40;100.00;100813.72;5052049;28;20048;-86
2023/04/22 00:11:46;;;;;;;14.00;10.70;;;;;;;5.37;100.00;100822.38;5051866;28;20024;-86
2023/04/22 00:14:12;;;;;;;15.52;11.88;;;;;;;5.29;100.00;100796.25;5051858;28;20047;-85
2023/04/22 00:16:37;;;;;;;14.85;11.23;;;;;;;5.34;100.00;100801.19;5051928;28;20021;-85
2023/04/22 00:19:04;;;;;;;15.48;10.90;;;;;;;5.10;100.00;100765.44;5052143;28;20033;-84
2023/04/22 00:21:29;;;;;;;13.30;10.43;;;;;;;5.12;100.00;100771.34;5052279;28;20430;-86
2023/04/22 00:23:55;;;;;;;11.73;9.95;;;;;;;5.41;100.00;100820.53;5051174;28;20032;-86
2023/04/22 00:26:23;;;;;;;12.70;10.00;;;;;;;5.09;100.00;100775.75;5052003;28;20432;-83
2023/04/22 00:28:48;;;;;;;11.77;9.50;;;;;;;5.16;100.00;100793.38;5051871;28;20025;-85
2023/04/22 00:31:14;;;;;;;12.65;10.50;;;;;;;5.26;100.00;100816.84;5052028;28;20435;-86
2023/04/22 00:33:39;;;;;;;13.30;10.00;;;;;;;5.18;100.00;100803.53;5051920;28;20036;-86
2023/04/22 00:36:05;;;;;;;17.02;11.07;;;;;;;5.23;100.00;100819.56;5052108;28;20198;-86
2023/04/22 00:38:30;;;;;;;14.05;11.15;;;;;;;4.85;100.00;100767.34;5052362;28;20110;-85
2023/04/22 00:40:56;;;;;;;14.68;10.52;;;;;;;5.19;100.00;100821.38;5055787;28;20021;-86
2023/04/22 00:43:21;;;;;;;14.40;11.18;;;;;;;5.14;100.00;100828.44;5055508;28;20363;-84
2023/04/22 00:45:48;;;;;;;12.65;10.23;;;;;;;5.00;100.00;100805.09;5055439;28;20466;-83
2023/04/22 00:48:14;;;;;;;14.02;10.90;;;;;;;4.66;100.00;100754.47;5055397;28;20028;-85
2023/04/22 00:50:39;;;;;;;13.23;10.82;;;;;;;4.69;100.00;100753.50;5055512;28;20352;-85
2023/04/22 00:53:05;;;;;;;14.15;12.10;;;;;;;5.11;100.00;100823.44;5055209;28;20025;-83
2023/04/22 00:55:30;;;;;;;15.52;12.32;;;;;;;5.14;100.00;100820.75;5054097;28;20620;-82
2023/04/22 00:57:59;;;;;;;14.88;11.30;;;;;;;5.02;100.00;100805.06;5055253;28;20363;-85
2023/04/22 01:00:26;;;;;;;14.23;11.70;;;;;;;5.02;100.00;100812.75;5055142;28;20029;-83
2023/04/22 01:02:53;;;;;;;16.13;11.95;;;;;;;5.05;100.00;100813.44;5055047;28;20025;-85
2023/04/22 01:05:19;;;;;;;15.45;11.85;;;;;;;4.94;100.00;100805.38;5055288;28;20021;-82
2023/04/22 01:07:44;;;;;;;14.13;11.65;;;;;;;4.93;100.00;100808.00;5036335;28;20037;-84
2023/04/22 01:10:10;;;;;;;14.82;12.13;;;;;;;4.73;100.00;100767.84;5055029;28;20032;-84
2023/04/22 01:12:35;;;;;;;14.98;11.65;;;;;;;4.88;100.00;100785.97;5055019;28;20425;-86
2023/04/22 01:15:01;;;;;;;14.32;12.07;;;;;;;4.70;100.00;100750.88;5055038;28;20021;-81
2023/04/22 01:17:26;;;;;;;16.85;13.00;;;;;;;4.50;100.00;100717.59;5054787;28;20025;-81
2023/04/22 01:19:52;;;;;;;14.02;12.32;;;;;;;5.16;100.00;100811.28;5054814;28;20486;-81
2023/04/22 01:22:17;;;;;;;16.73;13.02;;;;;;;5.23;100.00;100806.75;5054695;28;20017;-81
2023/04/22 01:24:43;;;;;;;18.13;13.35;;;;;;;5.27;100.00;100810.84;5054637;28;20029;-81
2023/04/22 01:27:08;;;;;;;15.95;13.07;;;;;;;5.12;100.00;100773.91;5054764;28;20021;-81
2023/04/22 01:29:36;;;;;;;15.60;13.10;;;;;;;5.41;100.00;100808.56;5036886;28;20025;-81
2023/04/22 01:32:03;;;;;;;15.57;12.77;;;;;;;5.35;100.00;100793.44;5054648;28;20025;-80
2023/04/22 01:34:30;;;;;;;15.95;12.73;;;;;;;5.50;100.00;100807.31;5054491;28;20182;-81
2023/04/22 01:36:55;;;;;;;15.52;13.05;;;;;;;5.17;100.00;100748.13;5053030;28;20418;-80
2023/04/22 01:39:20;;;;;;;15.13;12.38;;;;;;;5.59;100.00;100808.66;5054611;28;20222;-81
2023/04/22 01:41:46;;;;;;;15.18;12.32;;;;;;;5.61;100.00;100805.16;5054373;28;20532;-81
2023/04/22 01:44:11;;;;;;;14.40;12.13;;;;;;;5.30;100.00;100749.25;5054142;28;20029;-81
2023/04/22 01:46:37;;;;;;;13.98;11.73;;;;;;;5.58;100.00;100791.63;5052674;28;20131;-80
2023/04/22 01:49:02;;;;;;;13.35;11.48;;;;;;;5.68;100.00;100808.25;5054046;28;20086;-81
2023/04/22 01:51:27;;;;;;;14.45;12.43;;;;;;;5.47;100.00;100764.75;5054673;28;20470;-81
2023/04/22 01:53:53;;;;;;;14.48;11.93;;;;;;;5.70;100.00;100793.66;5053927;28;20032;-82
2023/04/22 01:56:18;;;;;;;14.57;12.02;;;;;;;5.71;100.00;100795.34;5054143;28;20526;-81
2023/04/22 01:58:43;;;;;;;14.45;11.98;;;;;;;5.60;100.00;100775.28;5053987;28;20037;-81
2023/04/22 02:01:10;;;;;;;12.98;11.15;;;;;;;5.62;100.00;100770.13;5053932;28;20025;-81
2023/04/22 02:03:36;;;;;;;14.05;12.15;;;;;;;5.77;100.00;100795.06;5054145;28;20051;-82
2023/04/22 02:06:01;;;;;;;16.05;12.82;;;;;;;5.79;100.00;100795.81;5053958;28;20021;-81
2023/04/22 02:08:26;;;;;;;13.85;11.73;;;;;;;5.73;100.00;100783.28;5054273;28;20060;-82
2023/04/22 02:10:52;;;;;;;14.10;12.13;;;;;;;5.82;100.00;100793.13;5053976;28;20082;-82
2023/04/22 02:13:17;;;;;;;20.65;14.13;;;;;;;5.63;100.00;100762.38;5052211;28;20080;-82
2023/04/22 02:15:42;;;;;;;15.23;12.30;;;;;;;5.69;100.00;100771.50;5054043;28;20025;-82
2023/04/22 02:18:09;;;;;;;16.65;13.15;;;;;;;5.86;100.00;100791.25;5053794;28;20053;-81
2023/04/22 02:20:34;;;;;;;14.95;13.32;;;;;;;5.85;100.00;100790.44;5052641;28;20025;-82
2023/04/22 02:23:00;;;;;;;15.57;13.05;;;;;;;5.88;100.00;100790.28;5052534;28;20041;-82
2023/04/22 02:25:26;;;;;;;15.35;13.13;;;;;;;5.64;100.00;100747.81;5053650;28;20100;-82
2023/04/22 02:27:51;;;;;;;16.15;13.25;;;;;;;5.69;100.00;100756.13;5053721;28;20029;-82
2023/04/22 02:30:17;;;;;;;15.70;13.18;;;;;;;5.85;100.00;100772.50;5053538;28;20029;-82
2023/04/22 02:32:42;;;;;;;14.82;12.50;;;;;;;5.51;100.00;100718.53;5053427;28;20040;-83
2023/04/22 02:35:10;;;;;;;15.95;12.80;;;;;;;5.81;100.00;100767.59;5053433;28;20080;-82
2023/04/22 02:37:35;;;;;;;16.52;12.55;;;;;;;5.83;100.00;100765.78;5053096;28;20414;-82
2023/04/22 02:40:00;;;;;;;14.75;12.80;;;;;;;5.88;100.00;100774.91;5053487;28;20146;-82
2023/04/22 02:42:26;;;;;;;15.55;13.05;;;;;;;5.62;100.00;100722.28;5053445;28;20033;-80
2023/04/22 02:44:51;;;;;;;15.40;12.80;;;;;;;5.93;100.00;100777.31;5035473;28;20033;-82
2023/04/22 02:47:16;;;;;;;14.10;11.65;;;;;;;5.90;100.00;100773.16;5053243;28;20151;-83
2023/04/22 02:49:42;;;;;;;15.65;12.88;;;;;;;5.74;100.00;100742.22;5053145;28;20025;-82
2023/04/22 02:52:07;;;;;;;15.32;12.88;;;;;;;5.97;100.00;100763.44;5051595;28;20371;-82
2023/04/22 02:54:32;;;;;;;14.95;12.05;;;;;;;5.96;100.00;100767.75;5051870;28;20036;-82
2023/04/22 02:56:58;;;;;;;15.45;13.23;;;;;;;5.57;100.00;100708.00;5053298;28;20041;-82
2023/04/22 02:59:23;;;;;;;14.05;11.57;;;;;;;5.95;100.00;100760.97;5051698;28;20117;-82
2023/04/22 03:01:48;;;;;;;15.30;12.90;;;;;;;5.95;100.00;100766.09;5052335;28;20053;-82
2023/04/22 03:04:14;;;;;;;14.88;12.68;;;;;;;5.94;100.00;100764.44;5052893;28;20021;-82
2023/04/22 03:06:40;;;;;;;13.98;12.38;;;;;;;5.80;100.00;100735.16;5051511;28;20490;-82
2023/04/22 03:09:05;;;;;;;14.65;12.60;;;;;;;5.93;100.00;100754.25;5052699;28;20028;-82
2023/04/22 03:11:30;;;;;;;14.68;11.80;;;;;;;5.53;100.00;100686.00;5052878;28;20033;-85
2023/04/22 03:13:56;;;;;;;14.40;11.48;;;;;;;5.67;100.00;100710.06;5051202;28;20052;-84
2023/04/22 03:16:23;;;;;;;14.20;12.45;;;;;;;5.08;100.00;100620.53;5052719;28;20489;-85
2023/04/22 03:18:48;;;;;;;17.17;12.95;;;;;;;5.98;100.00;100765.13;5052713;28;20463;-84
2023/04/22 03:21:14;;;;;;;16.33;13.65;;;;;;;5.55;100.00;100687.56;5052795;28;20025;-85
2023/04/22 03:23:39;;;;;;;14.65;12.50;;;;;;;5.70;100.00;100709.97;5052577;28;20100;-85
2023/04/22 03:26:05;;;;;;;14.98;12.63;;;;;;;5.79;100.00;100728.38;5035086;28;20033;-84
2023/04/22 03:28:31;;;;;;;15.13;12.63;;;;;;;5.97;100.00;100748.91;5052768;28;20024;-85
2023/04/22 03:30:56;;;;;;;16.58;14.20;;;;;;;5.88;100.00;100738.19;5052539;28;20467;-85
2023/04/22 03:33:21;;;;;;;16.58;13.77;;;;;;;5.73;100.00;100704.69;5051377;28;20111;-85
2023/04/22 03:35:48;;;;;;;16.65;14.00;;;;;;;5.74;100.00;100713.22;5052224;28;20045;-85
2023/04/22 03:38:14;;;;;;;16.00;13.60;;;;;;;5.93;100.00;100737.16;5050873;28;20076;-85
2023/04/22 03:40:40;;;;;;;14.43;12.52;;;;;;;5.30;100.00;100643.44;5052554;28;20037;-86
2023/04/22 03:43:05;;;;;;;15.40;12.70;;;;;;;5.22;100.00;100625.88;5052204;28;20051;-86
2023/04/22 03:45:31;;;;;;;15.45;13.45;;;;;;;5.68;100.00;100711.75;5052187;28;20112;-85
2023/04/22 03:47:56;;;;;;;15.68;12.43;;;;;;;5.91;100.00;100730.44;5052373;28;20099;-85
2023/04/22 03:50:22;;;;;;;16.10;13.45;;;;;;;5.69;100.00;100699.75;5036479;28;20036;-85
2023/04/22 03:52:47;;;;;;;16.63;14.07;;;;;;;5.87;100.00;100726.28;5032303;28;20029;-85
2023/04/22 03:55:13;;;;;;;15.40;13.75;;;;;;;5.87;100.00;100736.53;5032228;28;20021;-85
2023/04/22 03:57:38;;;;;;;15.60;12.98;;;;;;;5.73;100.00;100706.44;5032142;28;20026;-85
2023/04/22 04:00:04;;;;;;;15.73;12.77;;;;;;;5.69;100.00;100708.28;5047074;28;20032;-82
2023/04/22 04:02:30;;;;;;;15.30;12.85;;;;;;;5.66;100.00;100700.72;5052010;28;20029;-85
2023/04/22 04:04:55;;;;;;;15.30;13.27;;;;;;;5.68;100.00;100696.38;5065600;23;20045;-84
2023/04/22 04:07:20;;;;;;;15.02;12.80;;;;;;;5.74;100.00;100721.72;5049744;28;20033;-84
2023/04/22 04:09:46;;;;;;;15.48;12.50;;;;;;;5.57;100.00;100690.91;5051930;28;20021;-85
2023/04/22 04:12:11;;;;;;;15.18;12.65;;;;;;;5.33;100.00;100640.78;5052422;28;20500;-85
2023/04/22 04:14:40;;;;;;;15.93;12.82;;;;;;;5.71;100.00;100708.22;5054622;28;20029;-83
2023/04/22 04:17:07;;;;;;;15.05;12.45;;;;;;;5.59;100.00;100690.81;5055826;28;20482;-82
2023/04/22 04:19:33;;;;;;;15.57;13.20;;;;;;;5.68;100.00;100711.75;5056238;28;20067;-82
2023/04/22 04:21:58;;;;;;;15.40;13.45;;;;;;;5.71;100.00;100703.94;5038252;28;20052;-82
2023/04/22 04:24:24;;;;;;;14.73;12.60;;;;;;;5.70;100.00;100704.84;5055840;28;20029;-83
2023/04/22 04:26:50;;;;;;;14.63;12.38;;;;;;;5.71;100.00;100710.78;5055837;28;20024;-82
2023/04/22 04:29:19;;;;;;;15.27;13.13;;;;;;;5.41;100.00;100667.72;5056068;28;20483;-82
2023/04/22 04:31:44;;;;;;;15.52;13.48;;;;;;;5.59;100.00;100699.34;5055647;28;20456;-82
2023/04/22 04:34:09;;;;;;;15.13;13.52;;;;;;;5.68;100.00;100693.81;5055816;28;20029;-82
2023/04/22 04:36:35;;;;;;;17.95;15.10;;;;;;;5.46;100.00;100657.25;5055785;28;20032;-83
2023/04/22 04:39:01;;;;;;;18.23;15.15;;;;;;;5.74;100.00;100692.72;5055545;28;20083;-85
2023/04/22 04:41:27;;;;;;;18.77;15.27;;;;;;;5.76;100.00;100698.59;5055505;28;20375;-84
2023/04/22 04:43:52;;;;;;;16.88;14.18;;;;;;;5.63;100.00;100680.38;5054417;28;20068;-85
2023/04/22 04:46:18;;;;;;;18.42;14.35;;;;;;;5.76;100.00;100694.28;5055589;28;20032;-85
2023/04/22 04:48:45;;;;;;;18.42;15.15;;;;;;;5.54;100.00;100665.44;5055444;28;20084;-85
2023/04/22 04:51:11;;;;;;;18.08;14.82;;;;;;;5.72;100.00;100691.97;5054353;28;20120;-84
2023/04/22 04:53:36;;;;;;;18.85;15.55;;;;;;;5.72;100.00;100692.78;5053961;28;20060;-84
2023/04/22 04:56:02;;;;;;;17.52;15.27;;;;;;;5.72;100.00;100694.53;5055302;28;20036;-85
2023/04/22 04:58:28;;;;;;;18.63;15.10;;;;;;;5.81;100.00;100709.47;5055339;28;20454;-84
2023/04/22 05:00:53;;;;;;;17.70;14.20;;;;;;;5.42;100.00;100640.38;5055535;28;20048;-85
2023/04/22 05:03:18;;;;;;;17.05;15.10;;;;;;;5.89;100.00;100707.38;5053542;28;20387;-85
2023/04/22 05:05:47;;;;;;;18.20;15.23;;;;;;;5.77;100.00;100682.31;5054988;28;20037;-85
2023/04/22 05:08:12;;;;;;;17.98;15.05;;;;;;;5.62;100.00;100644.59;5055126;28;20056;-85
2023/04/22 05:10:37;;;;;;;17.60;15.38;;;;;;;5.85;100.00;100677.69;5055102;28;20112;-85
2023/04/22 05:13:03;;;;;;;17.30;13.88;;;;;;;6.01;100.00;100698.34;5055191;28;20047;-85
2023/04/22 05:15:28;;;;;;;18.90;15.73;;;;;;;5.75;100.00;100643.13;5053298;28;20029;-85
2023/04/22 05:17:54;;;;;;;18.13;15.77;;;;;;;6.19;100.00;100717.97;5054769;28;20763;-85
2023/04/22 05:20:19;;;;;;;16.67;13.77;;;;;;;5.98;100.00;100681.34;5054748;28;20586;-85
2023/04/22 05:22:45;;;;;;;17.17;14.50;;;;;;;6.01;100.00;100668.44;5054792;28;20033;-86
2023/04/22 05:25:10;;;;;;;18.10;15.65;;;;;;;6.17;100.00;100668.53;5053081;28;20033;-85
2023/04/22 05:27:35;;;;;;;17.10;13.73;;;;;;;6.37;100.00;100692.38;5054494;28;20506;-85
2023/04/22 05:30:01;;;;;;;16.70;14.02;;;;;;;6.38;100.00;100700.00;5054796;28;20484;-85
2023/04/22 05:32:26;;;;;;;18.10;14.93;;;;;;;6.42;100.00;100708.41;5054578;28;20033;-85
2023/04/22 05:34:52;;;;;;;19.30;15.85;;;;;;;6.07;100.00;100641.66;5054361;28;20086;-85
2023/04/22 05:37:17;;;;;;;18.75;16.52;;;;;;;6.39;100.00;100680.31;5054593;28;20028;-85
2023/04/22 05:39:42;;;;;;;18.75;16.80;;;;;;;6.36;100.00;100657.38;5054478;28;20036;-84
2023/04/22 05:42:08;;;;;;;18.23;16.23;;;;;;;6.79;100.00;100704.91;5054508;28;20053;-85
2023/04/22 05:44:33;;;;;;;20.13;17.50;;;;;;;6.93;100.00;100704.19;5054534;28;20036;-85
2023/04/22 05:46:58;;;;;;;22.42;18.38;;;;;;;6.46;100.00;100597.88;5054268;28;20029;-85
2023/04/22 05:49:24;;;;;;;20.08;17.88;;;;;;;7.33;100.00;100697.88;5054190;28;20056;-84
2023/04/22 05:51:49;;;;;;;21.73;19.30;;;;;;;7.87;100.00;100699.28;5054321;28;20021;-87
2023/04/22 05:54:15;;;;;;;20.10;17.77;;;;;;;7.92;100.00;100638.16;5054310;28;20025;-85
2023/04/22 05:56:50;;;;;;;19.38;16.27;;;;;;;8.05;100.00;100656.31;5054122;28;20743;-87
2023/04/22 05:59:15;;;;;;;17.95;16.02;;;;;;;8.31;100.00;100688.31;5054043;28;20505;-86
2023/04/22 06:01:41;;;;;;;18.77;16.65;;;;;;;7.69;100.00;100593.16;5054068;28;20052;-86
2023/04/22 06:04:08;;;;;;;20.55;17.25;;;;;;;8.16;100.00;100666.84;5053902;28;20029;-85
2023/04/22 06:06:34;;;;;;;18.27;15.90;;;;;;;8.01;100.00;100614.50;5054042;28;20159;-86
2023/04/22 06:09:00;;;;;;;18.45;16.42;;;;;;;8.72;100.00;100656.84;5054078;28;20067;-84
2023/04/22 06:11:28;;;;;;;18.33;16.25;;;;;;;9.54;100.00;100653.66;5053992;28;20029;-83
2023/04/22 06:13:53;;;;;;;19.00;15.48;;;;;;;10.65;100.00;100681.91;5053725;28;20140;-84
2023/04/22 06:16:19;;;;;;;16.85;15.05;;;;;;;11.39;99.09;100614.78;5053966;28;20049;-85
2023/04/22 06:18:44;;;;;;;17.05;14.98;;;;;;;12.41;91.48;100611.81;5053717;28;20083;-85
2023/04/22 06:21:11;;;;;;;16.70;13.60;;;;;;;13.19;87.89;100668.16;5053726;28;20428;-85
2023/04/22 06:23:36;;;;;;;15.50;13.90;;;;;;;13.77;85.38;100655.88;5053777;28;20056;-84
2023/04/22 06:26:02;;;;;;;19.00;13.65;;;;;;;14.63;81.53;100681.75;5053804;28;20055;-86
2023/04/22 06:28:27;;;;;;;14.45;12.95;;;;;;;15.24;76.94;100644.63;5053478;28;20447;-84
2023/04/22 06:30:52;;;;;;;15.45;13.85;;;;;;;16.24;73.32;100650.59;5053439;28;20099;-85
2023/04/22 06:33:18;;;;;;;15.50;13.90;;;;;;;17.26;67.77;100629.94;5053385;28;20029;-85
2023/04/22 06:35:44;;;;;;;13.85;12.43;;;;;;;18.02;64.37;100611.34;5053528;28;20099;-85
2023/04/22 06:38:09;;;;;;;13.68;12.02;;;;;;;18.99;60.29;100605.19;5052950;28;20068;-84
2023/04/22 06:40:35;;;;;;;13.00;11.52;;;;;;;19.66;57.24;100663.72;5053569;28;20017;-85
2023/04/22 06:43:00;;;;;;;12.98;11.68;;;;;;;19.87;56.94;100655.44;5053347;28;20033;-84
2023/04/22 06:45:25;;;;;;;12.18;10.88;;;;;;;20.19;55.70;100641.53;5053201;28;20075;-83
2023/04/22 06:47:52;;;;;;;13.18;10.73;;;;;;;20.17;55.16;100612.88;5053113;28;20115;-80
2023/04/22 06:50:18;;;;;;;13.90;10.77;;;;;;;20.81;54.68;100632.16;5043738;28;20483;-83
2023/04/22 06:52:44;;;;;;;12.80;10.32;;;;;;;21.27;52.63;100642.06;5034053;28;20021;-82
2023/04/22 06:55:09;;;;;;;10.95;9.65;;;;;;;21.36;51.42;100654.16;5032019;28;20471;-83
2023/04/22 06:57:35;;;;;;;12.02;10.73;;;;;;;20.90;51.74;100652.16;5033021;28;20025;-82
2023/04/22 07:00:00;;;;;;;13.02;11.05;;;;;;;20.66;53.87;100625.97;5032863;28;20360;-84
2023/04/22 07:02:26;;;;;;;11.77;10.40;;;;;;;21.04;53.03;100644.56;5032977;28;20041;-83
2023/04/22 07:04:51;;;;;;;15.32;10.65;;;;;;;21.16;51.49;100646.66;5032887;28;20045;-83
2023/04/22 07:07:17;;;;;;;15.38;10.32;;;;;;;21.23;53.00;100656.47;5033013;28;20056;-83
2023/04/22 07:09:43;;;;;;;11.88;9.98;;;;;;;21.45;52.50;100653.16;5032931;28;20033;-83
2023/04/22 07:12:08;;;;;;;11.48;9.52;;;;;;;21.62;51.60;100651.22;5047169;28;20036;-86
2023/04/22 07:14:33;;;;;;;10.52;9.40;;;;;;;20.81;53.16;100624.28;5052901;28;20029;-83
2023/04/22 07:16:59;;;;;;;11.38;9.38;;;;;;;19.70;55.58;100652.75;5051091;28;20037;-83
2023/04/22 07:19:33;;;;;;;11.57;9.95;;;;;;;17.97;58.81;100613.59;5051413;28;20560;-83
2023/04/22 07:21:59;;;;;;;14.48;10.70;;;;;;;16.23;63.59;100557.78;5052785;28;20441;-83
2023/04/22 07:24:24;;;;;;;11.63;10.43;;;;;;;15.98;68.59;100644.28;5052746;28;20013;-83
2023/04/22 07:26:50;;;;;;;13.13;11.52;;;;;;;15.27;71.63;100620.94;5052639;28;20036;-83
2023/04/22 07:29:15;;;;;;;13.70;12.18;;;;;;;14.97;73.49;100636.56;5051072;28;20086;-83
2023/04/22 07:31:41;;;;;;;14.55;12.95;;;;;;;14.69;76.54;100654.47;5052487;28;20033;-83
2023/04/22 07:34:06;;;;;;;15.43;13.73;;;;;;;14.06;77.14;100599.03;5052762;28;20025;-84
2023/04/22 07:36:32;;;;;;;16.17;14.23;;;;;;;14.06;79.78;100656.97;5052698;28;20025;-83
2023/04/22 07:38:57;;;;;;;18.23;14.32;;;;;;;13.93;80.35;100661.47;5052452;28;20067;-85
2023/04/22 07:41:22;;;;;;;17.05;14.43;;;;;;;13.48;82.19;100607.09;5052496;28;20044;-83
2023/04/22 07:43:48;;;;;;;18.08;14.98;;;;;;;13.33;84.14;100589.28;5052482;28;20021;-78
2023/04/22 07:46:13;;;;;;;17.48;15.73;;;;;;;13.41;85.33;100598.13;5052278;28;20421;-80
2023/04/22 07:48:38;;;;;;;17.00;15.20;;;;;;;13.57;86.78;100649.66;5052150;28;20094;-79
2023/04/22 07:51:04;;;;;;;18.60;16.25;;;;;;;13.61;88.64;100655.41;5052444;28;20112;-79
2023/04/22 07:53:29;;;;;;;17.83;15.98;;;;;;;13.44;88.68;100613.44;5052304;28;20167;-80
2023/04/22 07:55:55;;;;;;;17.98;16.05;;;;;;;13.68;88.08;100656.59;5052092;28;20029;-80
2023/04/22 07:58:20;;;;;;;17.30;15.45;;;;;;;13.47;88.95;100608.03;5052540;28;20507;-80
2023/04/22 08:00:46;;;;;;;15.98;14.27;;;;;;;13.48;88.02;100581.16;5052166;28;20029;-87
2023/04/22 08:03:11;;;;;;;20.92;15.52;;;;;;;13.78;89.80;100608.19;5052195;28;20025;-79
2023/04/22 08:05:36;;;;;;;19.77;15.30;;;;;;;13.85;89.43;100603.31;5052099;28;20037;-79
2023/04/22 08:08:02;;;;;;;16.90;15.10;;;;;;;14.09;90.01;100623.91;5052137;28;20077;-87
2023/04/22 08:10:27;;;;;;;15.88;14.23;;;;;;;14.23;88.91;100621.00;5050631;28;20044;-87
2023/04/22 08:12:52;;;;;;;14.55;13.05;;;;;;;14.06;88.89;100573.06;5052299;28;20052;-83
2023/04/22 08:15:18;;;;;;;19.23;15.27;;;;;;;14.46;88.56;100607.00;5052131;28;20029;-81
2023/04/22 08:17:43;;;;;;;14.57;12.95;;;;;;;14.65;87.30;100611.50;5052064;28;20029;-81
2023/04/22 08:20:09;;;;;;;16.23;13.05;;;;;;;14.69;84.45;100584.28;5052147;28;20041;-80
2023/04/22 08:22:34;;;;;;;14.32;12.45;;;;;;;14.68;84.24;100574.03;5052104;28;20025;-80
2023/04/22 08:25:00;;;;;;;14.23;12.35;;;;;;;14.65;84.99;100549.13;5052173;28;20468;-80
2023/04/22 08:27:25;;;;;;;14.90;11.90;;;;;;;15.03;83.93;100600.44;5052069;28;20021;-81
2023/04/22 08:29:50;;;;;;;15.48;12.05;;;;;;;15.12;84.29;100584.03;5050741;28;20082;-80
2023/04/22 08:32:18;;;;;;;13.32;10.98;;;;;;;15.56;79.89;100600.19;5051927;28;20048;-77
2023/04/22 08:34:43;;;;;;;15.07;11.02;;;;;;;15.39;77.80;100562.63;5050569;28;20017;-81
2023/04/22 08:37:09;;;;;;;12.05;10.65;;;;;;;15.58;78.73;100587.06;5051788;28;20079;-79
2023/04/22 08:39:34;;;;;;;14.57;11.20;;;;;;;15.85;79.78;100602.06;5051941;28;20060;-80
2023/04/22 08:42:01;;;;;;;16.88;12.15;;;;;;;16.01;78.92;100602.31;5052085;28;20063;-78
2023/04/22 08:44:27;;;;;;;12.48;10.43;;;;;;;15.77;78.61;100533.25;5051929;28;20029;-80
2023/04/22 08:46:54;;;;;;;12.00;9.73;;;;;;;16.21;76.28;100597.94;5048524;28;20082;-81
2023/04/22 08:49:23;;;;;;;12.55;9.98;;;;;;;16.20;76.66;100586.69;5030107;28;20491;-79
2023/04/22 08:51:49;;;;;;;14.90;10.57;;;;;;;16.15;78.06;100573.25;5031796;28;20156;-80
2023/04/22 08:54:15;;;;;;;11.50;10.13;;;;;;;15.97;77.99;100546.28;5031967;28;20474;-80
2023/04/22 08:56:42;;;;;;;13.50;10.27;;;;;;;15.97;77.44;100556.69;5031986;28;20041;-84
2023/04/22 08:59:12;;;;;;;12.82;9.80;;;;;;;15.78;77.73;100544.50;5032030;28;20525;-83
2023/04/22 09:01:41;;;;;;;12.73;9.90;;;;;;;15.89;78.37;100557.38;5035633;28;20033;-81
2023/04/22 09:04:09;;;;;;;13.60;11.10;;;;;;;15.85;73.63;100547.38;5034865;28;20033;-79
2023/04/22 09:06:37;;;;;;;13.30;11.38;;;;;;;15.92;78.95;100564.06;5054503;28;20036;-81
2023/04/22 09:09:03;;;;;;;12.75;10.50;;;;;;;16.00;75.80;100559.00;5056201;28;20025;-79
2023/04/22 09:11:29;;;;;;;14.32;11.32;;;;;;;16.03;76.12;100541.34;5055156;28;20025;-81
2023/04/22 09:13:55;;;;;;;13.27;11.68;;;;;;;16.03;76.22;100515.28;5055043;28;20120;-81
2023/04/22 09:16:20;;;;;;;14.23;12.50;;;;;;;16.40;76.26;100553.59;5055064;28;20104;-79
2023/04/22 09:18:46;;;;;;;15.40;11.85;;;;;;;16.33;75.33;100529.91;5054483;28;20024;-81
2023/04/22 09:21:12;;;;;;;14.35;11.20;;;;;;;16.44;74.57;100528.09;5054743;28;20025;-80
2023/04/22 09:23:49;;;;;;;11.60;9.88;;;;;;;16.61;74.68;100548.19;5054909;28;20506;-83
2023/04/22 09:26:17;;;;;;;10.77;8.93;;;;;;;16.67;73.03;100544.19;5054861;28;20112;-80
2023/04/22 09:28:52;;;;;;;10.98;8.90;;;;;;;16.85;73.57;100551.16;5054729;28;20446;-80
2023/04/22 09:31:19;;;;;;;11.05;8.25;;;;;;;16.90;72.00;100533.28;5054571;28;20159;-87
2023/04/22 09:33:56;;;;;;;9.40;8.15;;;;;;;17.10;70.74;100551.44;5054648;28;20025;-81
2023/04/22 09:36:29;;;;;;;11.15;8.25;;;;;;;17.14;73.60;100524.94;5054495;28;20063;-82
2023/04/22 09:38:58;;;;;;;11.70;9.18;;;;;;;17.19;74.10;100545.34;5053094;28;20029;-81
2023/04/22 09:41:35;;;;;;;9.88;8.27;;;;;;;17.14;71.71;100547.59;5054532;28;20029;-84
2023/04/22 09:44:03;;;;;;;10.73;8.18;;;;;;;16.94;74.87;100519.97;5054443;28;20150;-81
2023/04/22 09:46:30;;;;;;;9.82;7.20;;;;;;;16.78;72.29;100504.94;5054558;28;20434;-82
2023/04/22 09:48:57;;;;;;;9.55;7.60;;;;;;;16.95;72.36;100537.25;5054161;28;20021;-81
2023/04/22 09:51:23;;;;;;;9.77;7.65;;;;;;;17.04;74.75;100541.63;5054280;28;20028;-80
2023/04/22 09:54:10;;;;;;;9.38;7.30;;;;;;;17.02;72.84;100540.94;5054410;28;20100;-81
2023/04/22 09:56:46;;;;;;;9.55;7.30;;;;;;;16.79;74.13;100506.56;5035310;28;20065;-83
2023/04/22 09:59:12;;;;;;;9.73;6.85;;;;;;;16.67;71.17;100484.25;5034353;28;20554;-81
2023/04/22 10:01:40;;;;;;;9.07;7.07;;;;;;;16.85;72.77;100501.63;5034376;28;20104;-82
2023/04/22 10:04:09;;;;;;;12.25;7.97;;;;;;;17.10;73.08;100520.13;5034376;28;20021;-82
2023/04/22 10:06:36;;;;;;;9.70;7.53;;;;;;;17.25;70.25;100523.09;5034183;28;20050;-85
2023/04/22 10:09:01;;;;;;;10.73;8.02;;;;;;;17.20;70.86;100510.47;5032895;28;20033;-83
2023/04/22 10:11:27;;;;;;;9.43;7.45;;;;;;;17.26;72.49;100520.31;5045894;28;20548;-82
2023/04/22 10:13:53;;;;;;;9.85;7.53;;;;;;;17.46;72.35;100542.72;5054289;28;20445;-89
2023/04/22 10:16:21;;;;;;;10.32;8.05;;;;;;;17.43;70.65;100518.72;5054035;28;20114;-86
2023/04/22 10:18:47;;;;;;;10.27;8.48;;;;;;;17.61;69.39;100505.66;5053708;28;20112;-81
2023/04/22 10:21:13;;;;;;;11.57;7.93;;;;;;;17.97;67.70;100478.53;5053532;28;20128;-87
2023/04/22 10:23:45;;;;;;;10.23;7.50;;;;;;;18.58;66.80;100542.97;5053441;28;20025;-85
2023/04/22 10:26:11;;;;;;;10.43;7.45;;;;;;;18.38;67.31;100510.16;5052546;28;20040;-86
2023/04/22 10:28:42;;;;;;;9.50;6.47;;;;;;;18.54;64.68;100533.78;5053381;28;20029;-84
2023/04/22 10:31:20;;;;;;;8.73;7.05;;;;;;;18.92;66.46;100557.88;5053635;28;20117;-87
2023/04/22 10:33:46;;;;;;;9.82;6.97;;;;;;;18.70;64.69;100504.31;5053299;28;20021;-83
2023/04/22 10:36:14;;;;;;;8.27;6.50;;;;;;;19.13;63.69;100553.06;5034940;28;20043;-85
2023/04/22 10:38:49;;;;;;;12.70;6.85;;;;;;;19.25;62.37;100560.59;5053291;28;20028;-82
2023/04/22 10:41:15;;;;;;;8.95;6.53;;;;;;;19.35;63.86;100551.63;5053406;28;20029;-85
2023/04/22 10:43:42;;;;;;;9.48;6.85;;;;;;;19.55;61.26;100554.78;5052085;28;20032;-82
2023/04/22 10:46:31;;;;;;;10.30;6.97;;;;;;;19.66;63.37;100549.25;5053546;28;20028;-83
2023/04/22 10:48:57;;;;;;;10.43;6.82;;;;;;;19.45;62.72;100517.44;5052967;28;20584;-81
2023/04/22 10:51:39;;;;;;;9.40;6.60;;;;;;;19.63;62.68;100526.00;5053124;28;20025;-84
2023/04/22 10:54:05;;;;;;;8.82;7.30;;;;;;;19.47;61.55;100523.38;5053308;28;20028;-83
2023/04/22 10:56:30;;;;;;;9.73;7.45;;;;;;;19.44;60.59;100514.00;5053077;28;20029;-83
2023/04/22 10:58:55;;;;;;;9.15;7.47;;;;;;;19.28;61.17;100516.63;5053103;28;20426;-83
2023/04/22 11:01:21;;;;;;;8.68;7.07;;;;;;;18.64;62.19;100473.53;5053064;28;20474;-86
2023/04/22 11:03:46;;;;;;;9.10;6.53;;;;;;;18.53;63.20;100540.00;5052905;28;20528;-82
2023/04/22 11:06:17;;;;;;;9.73;6.25;;;;;;;17.95;64.69;100529.31;5051397;28;20083;-85
2023/04/22 11:08:49;;;;;;;10.43;6.45;;;;;;;17.69;65.92;100550.09;5052862;28;20069;-84